Time;durP1;ratioP1;P1;durP2;ratioP2;P2;SDS_P1;SDS_P2;PMS_P1;PMS_P2;Temp;Humidity;BMP_temperature;BMP_pressure;BME280_temperature;BME280_humidity;BME280_pressure;Samples;Min_cycle;Max_cycle;Signal;HPM_P1;HPM_P2
2022/01/14 00:01:02;;;;;;;15.57;6.65;;;1.10;55.90;;;;;;5090639;27;34396;-76
2022/01/14 00:03:28;;;;;;;11.90;5.75;;;1.20;55.90;;;;;;5126068;27;34125;-77
2022/01/14 00:05:55;;;;;;;17.00;6.75;;;1.20;55.90;;;;;;5125847;27;34182;-77
2022/01/14 00:08:21;;;;;;;10.00;6.30;;;1.20;55.80;;;;;;5107495;27;35901;-77
2022/01/14 00:10:50;;;;;;;13.75;6.03;;;1.30;55.80;;;;;;5107394;27;34288;-77
2022/01/14 00:15:58;;;;;;;14.15;5.35;;;1.30;55.80;;;;;;5125555;27;34139;-77
2022/01/14 00:18:24;;;;;;;13.05;5.38;;;1.30;55.70;;;;;;5125934;27;34336;-77
2022/01/14 00:20:50;;;;;;;6.72;4.88;;;1.30;55.70;;;;;;5073105;27;34384;-77
2022/01/14 00:23:18;;;;;;;12.77;5.18;;;1.20;55.60;;;;;;5107154;27;34412;-77
2022/01/14 00:33:48;;;;;;;9.77;5.53;;;1.30;55.90;;;;;;5109626;27;34215;-77
2022/01/14 00:36:14;;;;;;;9.35;5.35;;;1.20;55.70;;;;;;5107008;27;34251;-77
2022/01/14 00:38:40;;;;;;;9.85;6.15;;;1.20;55.70;;;;;;5106781;27;36036;-76
2022/01/14 00:41:08;;;;;;;10.38;5.07;;;1.20;55.70;;;;;;5090182;27;34466;-76
2022/01/14 00:43:34;;;;;;;11.88;4.78;;;1.20;55.70;;;;;;5090407;27;34322;-77
2022/01/14 00:46:01;;;;;;;8.38;5.45;;;1.20;55.60;;;;;;5106961;27;34496;-76
2022/01/14 00:48:27;;;;;;;13.98;5.60;;;1.20;55.50;;;;;;5106440;27;36745;-77
2022/01/14 00:50:53;;;;;;;22.25;5.45;;;1.20;55.60;;;;;;5089955;27;34377;-77
2022/01/14 00:53:19;;;;;;;16.02;4.78;;;1.20;55.50;;;;;;5107498;27;34355;-77
2022/01/14 00:55:53;;;;;;;8.68;4.00;;;1.20;55.50;;;;;;5089913;27;34206;-76
2022/01/14 01:01:00;;;;;;;7.60;4.15;;;1.20;55.50;;;;;;5124899;27;34471;-76
2022/01/14 01:03:28;;;;;;;10.35;4.47;;;1.10;55.70;;;;;;5106471;27;34187;-77
2022/01/14 01:05:54;;;;;;;9.18;3.75;;;1.10;55.70;;;;;;5106711;27;34122;-76
2022/01/14 01:08:24;;;;;;;5.57;3.88;;;1.20;55.80;;;;;;5105947;27;35698;-76
2022/01/14 01:10:50;;;;;;;9.70;4.40;;;1.20;55.80;;;;;;5090301;27;34227;-76
2022/01/14 01:13:23;;;;;;;12.15;4.97;;;1.20;55.90;;;;;;5106451;27;34204;-77
2022/01/14 01:15:50;;;;;;;14.52;4.75;;;1.20;55.80;;;;;;5103013;28;34095;-77
2022/01/14 01:18:18;;;;;;;11.45;4.30;;;1.20;55.80;;;;;;5085526;28;36366;-77
2022/01/14 01:20:44;;;;;;;10.80;4.90;;;1.20;55.80;;;;;;5102978;28;34381;-76
2022/01/14 01:23:10;;;;;;;11.68;5.30;;;1.20;55.80;;;;;;5103132;28;34258;-76
2022/01/14 01:25:43;;;;;;;18.33;4.72;;;1.30;55.90;;;;;;5102522;28;34780;-76
2022/01/14 01:28:09;;;;;;;20.02;4.60;;;1.30;55.90;;;;;;5104554;27;35276;-77
2022/01/14 01:30:50;;;;;;;9.55;4.55;;;1.30;55.70;;;;;;5102717;28;34367;-77
2022/01/14 01:33:17;;;;;;;10.00;4.07;;;1.30;55.70;;;;;;5104261;27;34305;-77
2022/01/14 01:35:44;;;;;;;13.98;4.22;;;1.30;55.70;;;;;;5102414;28;34637;-76
2022/01/14 01:38:15;;;;;;;21.70;4.88;;;1.30;55.70;;;;;;5085968;28;36560;-77
2022/01/14 01:40:43;;;;;;;12.70;4.28;;;1.30;55.70;;;;;;5102263;27;34580;-77
2022/01/14 01:43:11;;;;;;;11.13;4.07;;;1.30;55.70;;;;;;5103056;27;34130;-77
2022/01/14 01:45:38;;;;;;;15.43;4.22;;;1.30;55.70;;;;;;5103387;27;34451;-77
2022/01/14 01:48:05;;;;;;;14.15;4.75;;;1.30;55.60;;;;;;5102934;28;34417;-77
2022/01/14 01:50:32;;;;;;;10.27;4.05;;;1.30;56.30;;;;;;5069336;28;34097;-77
2022/01/14 01:52:58;;;;;;;13.82;4.57;;;1.20;55.60;;;;;;5102037;27;34199;-77
2022/01/14 01:55:24;;;;;;;11.60;4.20;;;1.20;55.60;;;;;;5102685;28;34184;-77
2022/01/14 01:57:52;;;;;;;7.10;3.40;;;1.20;55.70;;;;;;5103178;28;34144;-77
2022/01/14 02:00:23;;;;;;;5.80;3.63;;;1.10;55.70;;;;;;5085782;28;34396;-77
2022/01/14 02:02:50;;;;;;;8.38;3.90;;;1.10;55.80;;;;;;5102293;27;34258;-77
2022/01/14 02:05:17;;;;;;;7.72;3.55;;;1.10;55.80;;;;;;5102659;28;34124;-77
2022/01/14 02:07:43;;;;;;;5.30;3.95;;;1.00;55.70;;;;;;5101771;27;36485;-77
2022/01/14 02:10:10;;;;;;;7.65;3.80;;;1.00;55.70;;;;;;5102280;28;34348;-76
2022/01/14 02:12:45;;;;;;;6.25;4.10;;;1.00;55.60;;;;;;5068364;28;34361;-76
2022/01/14 02:15:26;;;;;;;9.60;4.22;;;1.00;55.60;;;;;;5117213;27;34514;-77
2022/01/14 02:18:23;;;;;;;7.50;4.03;;;1.00;55.80;;;;;;5105255;27;35687;-77
2022/01/14 02:23:24;;;;;;;11.15;3.95;;;1.00;55.80;;;;;;5108413;27;34261;-77
2022/01/14 02:25:50;;;;;;;7.30;4.28;;;1.00;55.90;;;;;;5105924;27;34345;-77
2022/01/14 02:28:18;;;;;;;5.32;3.80;;;1.00;55.90;;;;;;5088601;27;35598;-76
2022/01/14 02:30:46;;;;;;;4.75;3.25;;;1.00;55.90;;;;;;5088951;27;34228;-77
2022/01/14 02:33:14;;;;;;;5.63;3.50;;;1.00;55.90;;;;;;5123673;27;34099;-77
2022/01/14 02:35:43;;;;;;;13.20;3.80;;;1.10;56.00;;;;;;5088357;27;34242;-76
2022/01/14 02:38:10;;;;;;;9.00;3.47;;;1.00;55.80;;;;;;5088396;27;35709;-77
2022/01/14 02:40:38;;;;;;;12.73;3.97;;;1.00;55.70;;;;;;5105352;27;34265;-76
2022/01/14 02:43:06;;;;;;;10.40;3.92;;;1.00;55.50;;;;;;5105415;27;34185;-77
2022/01/14 02:45:34;;;;;;;8.10;4.10;;;1.00;55.60;;;;;;5108190;27;34301;-77
2022/01/14 02:48:01;;;;;;;10.23;3.80;;;1.10;55.70;;;;;;5108720;27;36607;-76
2022/01/14 02:50:36;;;;;;;5.15;3.25;;;1.00;55.60;;;;;;5126827;27;34057;-77
2022/01/14 02:53:12;;;;;;;5.97;3.85;;;1.00;55.50;;;;;;5108734;27;34175;-77
2022/01/14 02:55:43;;;;;;;7.25;3.92;;;1.00;55.60;;;;;;5126670;27;34223;-77
2022/01/14 02:58:10;;;;;;;7.07;3.83;;;0.90;55.60;;;;;;5092863;27;35723;-77
2022/01/14 03:00:37;;;;;;;15.35;3.85;;;0.90;55.70;;;;;;5108748;27;34227;-76
2022/01/14 03:03:05;;;;;;;12.23;3.83;;;0.90;55.70;;;;;;5108517;27;34218;-76
2022/01/14 03:05:31;;;;;;;17.17;4.22;;;0.90;55.70;;;;;;5127105;27;34075;-77
2022/01/14 03:07:58;;;;;;;18.30;3.33;;;0.90;55.80;;;;;;5126446;27;34102;-77
2022/01/14 03:10:24;;;;;;;16.77;4.07;;;0.90;55.80;;;;;;5108783;27;34177;-77
2022/01/14 03:12:50;;;;;;;6.35;3.22;;;0.90;55.90;;;;;;5108793;27;34237;-77
2022/01/14 03:15:17;;;;;;;23.40;3.47;;;0.90;55.70;;;;;;5108837;27;34527;-77
2022/01/14 03:17:43;;;;;;;6.53;3.17;;;0.90;55.70;;;;;;5108107;27;36684;-76
2022/01/14 03:20:23;;;;;;;5.68;3.08;;;0.90;55.70;;;;;;5126762;27;34292;-76
2022/01/14 03:23:03;;;;;;;8.50;3.25;;;0.90;55.70;;;;;;5108465;27;34211;-77
2022/01/14 03:25:47;;;;;;;41.67;3.55;;;0.80;55.60;;;;;;5078537;27;34129;-77
2022/01/14 03:28:15;;;;;;;8.60;3.47;;;0.90;55.70;;;;;;5107839;27;36682;-76
2022/01/14 03:30:42;;;;;;;15.48;3.78;;;0.90;55.70;;;;;;5091891;27;34371;-76
2022/01/14 03:33:08;;;;;;;17.48;3.28;;;0.80;55.70;;;;;;5108261;27;34135;-76
2022/01/14 03:35:34;;;;;;;24.30;3.63;;;0.90;55.70;;;;;;5091475;27;34507;-77
2022/01/14 03:38:00;;;;;;;24.63;3.70;;;0.80;55.50;;;;;;5108369;27;36654;-77
2022/01/14 03:40:26;;;;;;;18.33;3.53;;;0.80;55.60;;;;;;5126744;27;34120;-77
2022/01/14 03:42:52;;;;;;;29.13;4.05;;;0.80;55.60;;;;;;5091023;27;34104;-77
2022/01/14 03:45:20;;;;;;;8.77;3.60;;;0.80;55.60;;;;;;5091238;27;34466;-77
2022/01/14 03:47:46;;;;;;;11.57;3.45;;;0.80;55.50;;;;;;5107761;27;35968;-77
2022/01/14 03:50:12;;;;;;;17.20;3.55;;;0.80;55.50;;;;;;5107980;27;34100;-77
2022/01/14 03:52:38;;;;;;;9.32;3.13;;;0.80;55.40;;;;;;5107837;27;34301;-77
2022/01/14 03:55:04;;;;;;;10.30;3.22;;;0.80;55.50;;;;;;5090093;27;34333;-77
2022/01/14 03:57:30;;;;;;;11.07;3.55;;;0.80;55.40;;;;;;5073459;27;35779;-77
2022/01/14 03:59:56;;;;;;;12.15;3.45;;;0.80;55.40;;;;;;5108511;27;34150;-77
2022/01/14 04:02:22;;;;;;;9.82;2.90;;;0.80;55.60;;;;;;5090986;27;34196;-77
2022/01/14 04:04:48;;;;;;;11.38;3.10;;;0.70;55.40;;;;;;5107470;27;34194;-77
2022/01/14 04:07:14;;;;;;;9.07;3.08;;;0.70;55.40;;;;;;5074014;27;35994;-77
2022/01/14 04:09:41;;;;;;;9.13;3.15;;;0.70;55.60;;;;;;5107644;27;34108;-77
2022/01/14 04:12:15;;;;;;;3.20;2.90;;;0.70;55.60;;;;;;5074606;27;34230;-77
2022/01/14 04:17:27;;;;;;;13.88;3.10;;;0.70;55.70;;;;;;5110440;27;34233;-77
2022/01/14 04:19:53;;;;;;;9.27;3.30;;;0.70;55.70;;;;;;5107089;27;34248;-77
2022/01/14 04:22:19;;;;;;;3.65;2.83;;;0.70;55.60;;;;;;5090517;27;34262;-77
2022/01/14 04:24:45;;;;;;;5.50;3.00;;;0.60;55.30;;;;;;5107638;27;34426;-77
2022/01/14 04:27:11;;;;;;;4.65;2.85;;;0.60;55.20;;;;;;5107246;27;35456;-77
2022/01/14 04:29:37;;;;;;;6.13;3.13;;;0.50;55.20;;;;;;5107071;27;34171;-76
2022/01/14 04:32:04;;;;;;;5.10;3.00;;;0.50;55.20;;;;;;5107314;27;34056;-76
2022/01/14 04:34:30;;;;;;;8.65;3.20;;;0.50;55.20;;;;;;5107728;27;34382;-76
2022/01/14 04:36:56;;;;;;;3.63;2.65;;;0.40;55.20;;;;;;5073509;27;36605;-76
2022/01/14 04:39:22;;;;;;;4.38;2.83;;;0.40;55.30;;;;;;5073427;27;34080;-76
2022/01/14 04:41:48;;;;;;;3.40;2.95;;;0.40;55.10;;;;;;5090688;27;34148;-76
2022/01/14 04:44:14;;;;;;;3.67;2.90;;;0.40;55.20;;;;;;5090641;27;34202;-76
2022/01/14 04:46:59;;;;;;;6.05;2.58;;;0.40;55.30;;;;;;5106718;27;35909;-76
2022/01/14 04:49:25;;;;;;;3.88;2.83;;;0.40;55.30;;;;;;5110170;27;34206;-76
2022/01/14 04:51:52;;;;;;;4.72;3.05;;;0.40;55.40;;;;;;5090298;27;34124;-76
2022/01/14 04:54:17;;;;;;;3.15;2.72;;;0.40;55.40;;;;;;5106736;27;34270;-76
2022/01/14 04:56:44;;;;;;;3.08;2.60;;;0.40;55.50;;;;;;5073008;27;35526;-77
2022/01/14 04:59:10;;;;;;;4.32;3.30;;;0.40;55.50;;;;;;5107456;27;34176;-77
2022/01/14 05:01:36;;;;;;;3.50;2.65;;;0.40;55.40;;;;;;5089538;27;34253;-77
2022/01/14 05:04:02;;;;;;;3.08;2.72;;;0.40;55.40;;;;;;5090148;27;34473;-77
2022/01/14 05:06:29;;;;;;;4.18;3.13;;;0.40;55.30;;;;;;5106757;27;34217;-77
2022/01/14 05:08:56;;;;;;;4.53;2.65;;;0.40;55.30;;;;;;5090409;27;34276;-77
2022/01/14 05:11:29;;;;;;;3.67;3.00;;;0.40;55.20;;;;;;5125503;27;34316;-77
2022/01/14 05:13:55;;;;;;;2.72;2.20;;;0.40;55.10;;;;;;5108296;27;34369;-76
2022/01/14 05:16:21;;;;;;;5.60;2.83;;;0.40;55.20;;;;;;5106818;27;35921;-76
2022/01/14 05:18:47;;;;;;;4.50;2.75;;;0.30;55.20;;;;;;5072607;27;34293;-77
2022/01/14 05:21:14;;;;;;;4.57;3.15;;;0.30;55.20;;;;;;5089749;27;34401;-76
2022/01/14 05:23:42;;;;;;;4.70;3.60;;;0.40;55.20;;;;;;5090239;27;34315;-76
2022/01/14 05:26:08;;;;;;;3.58;2.80;;;0.30;55.20;;;;;;5124873;27;35280;-76
2022/01/14 05:28:34;;;;;;;3.75;2.60;;;0.30;55.10;;;;;;5089416;27;34246;-76
2022/01/14 05:31:00;;;;;;;7.75;3.13;;;0.30;55.00;;;;;;5106844;27;34292;-76
2022/01/14 05:33:26;;;;;;;5.40;2.92;;;0.30;54.90;;;;;;5106431;27;34352;-76
2022/01/14 05:35:52;;;;;;;3.50;2.90;;;0.30;55.00;;;;;;5089027;27;35784;-76
2022/01/14 05:38:18;;;;;;;6.47;3.33;;;0.20;55.20;;;;;;5106893;27;34254;-76
2022/01/14 05:40:44;;;;;;;5.18;2.92;;;0.20;55.20;;;;;;5089708;27;34846;-76
2022/01/14 05:43:10;;;;;;;6.53;2.60;;;0.20;55.20;;;;;;5106312;27;34120;-76
2022/01/14 05:45:36;;;;;;;3.33;2.40;;;0.20;55.10;;;;;;5089024;27;35635;-76
2022/01/14 05:48:02;;;;;;;7.32;2.45;;;0.20;55.10;;;;;;5089049;27;34428;-76
2022/01/14 05:50:28;;;;;;;4.15;2.38;;;0.10;55.20;;;;;;5072306;27;34233;-76
2022/01/14 05:52:54;;;;;;;3.88;2.95;;;0.20;55.20;;;;;;5089918;27;34300;-76
2022/01/14 05:55:21;;;;;;;3.88;2.78;;;0.10;55.10;;;;;;5106057;27;35781;-76
2022/01/14 05:57:48;;;;;;;3.78;2.83;;;0.10;55.10;;;;;;5123905;27;34229;-76
2022/01/14 06:00:17;;;;;;;7.93;2.92;;;0.10;55.10;;;;;;5105685;27;34372;-77
2022/01/14 06:02:45;;;;;;;4.72;2.88;;;0.10;55.00;;;;;;5105992;27;34431;-77
2022/01/14 06:05:11;;;;;;;3.90;2.80;;;0.10;55.10;;;;;;5088866;27;36121;-76
2022/01/14 06:07:37;;;;;;;3.60;2.83;;;0.00;55.10;;;;;;5105795;27;34203;-76
2022/01/14 06:10:04;;;;;;;3.03;2.70;;;0.00;54.80;;;;;;5105635;27;34106;-76
2022/01/14 06:12:30;;;;;;;2.88;2.55;;;0.00;54.80;;;;;;5123951;27;34313;-76
2022/01/14 06:14:56;;;;;;;3.80;2.95;;;-0.10;54.70;;;;;;5084808;28;36032;-76
2022/01/14 06:17:22;;;;;;;4.20;2.90;;;-0.10;55.20;;;;;;5103396;27;34380;-76
2022/01/14 06:19:49;;;;;;;3.03;2.42;;;-0.10;54.60;;;;;;5102300;28;33983;-76
2022/01/14 06:22:15;;;;;;;2.22;2.03;;;-0.10;54.80;;;;;;5103437;27;34311;-76
2022/01/14 06:24:41;;;;;;;3.20;2.60;;;-0.20;54.50;;;;;;5084879;28;35729;-76
2022/01/14 06:27:07;;;;;;;3.25;2.53;;;-0.20;54.50;;;;;;5103404;27;34344;-76
2022/01/14 06:29:34;;;;;;;4.28;2.45;;;-0.20;55.20;;;;;;5085334;28;34394;-77
2022/01/14 06:32:01;;;;;;;4.18;2.80;;;-0.30;54.50;;;;;;5086947;28;34058;-77
2022/01/14 06:34:27;;;;;;;4.13;2.50;;;-0.30;54.50;;;;;;5086566;28;35668;-76
2022/01/14 06:36:53;;;;;;;4.00;2.75;;;-0.40;54.30;;;;;;5103436;28;34102;-76
2022/01/14 06:39:19;;;;;;;3.42;2.33;;;-0.40;54.50;;;;;;5085186;28;34304;-76
2022/01/14 06:41:45;;;;;;;3.45;2.22;;;-0.40;54.40;;;;;;5102388;28;34245;-76
2022/01/14 06:44:11;;;;;;;3.22;2.33;;;-0.50;54.70;;;;;;5102470;27;35911;-76
2022/01/14 06:46:38;;;;;;;3.00;2.42;;;-0.50;54.40;;;;;;5085208;28;34190;-76
2022/01/14 06:49:04;;;;;;;4.63;3.03;;;-0.50;54.30;;;;;;5102757;28;34273;-76
2022/01/14 06:51:30;;;;;;;2.70;2.45;;;-0.60;54.40;;;;;;5085444;28;34471;-76
2022/01/14 06:53:56;;;;;;;3.45;3.10;;;-0.60;54.50;;;;;;5102824;27;34903;-76
2022/01/14 06:56:22;;;;;;;3.15;2.28;;;-0.60;54.50;;;;;;5085135;28;34399;-76
2022/01/14 06:58:48;;;;;;;3.08;2.78;;;-0.70;54.60;;;;;;5101558;28;34606;-76
2022/01/14 07:01:14;;;;;;;4.03;2.83;;;-0.70;54.60;;;;;;5101896;27;34301;-76
2022/01/14 07:03:40;;;;;;;2.40;2.20;;;-0.70;54.40;;;;;;5103015;27;34881;-76
2022/01/14 07:06:07;;;;;;;3.15;2.70;;;-0.70;54.50;;;;;;5103036;28;34273;-76
2022/01/14 07:08:33;;;;;;;3.83;2.28;;;-0.70;54.40;;;;;;5084524;28;34195;-76
2022/01/14 07:10:59;;;;;;;3.33;2.30;;;-0.70;54.90;;;;;;5101807;28;34388;-76
2022/01/14 07:13:25;;;;;;;4.00;2.95;;;-0.70;54.90;;;;;;5102669;27;35031;-77
2022/01/14 07:15:51;;;;;;;2.60;2.40;;;-0.70;54.70;;;;;;5101042;28;34114;-76
2022/01/14 07:18:17;;;;;;;3.03;2.47;;;-0.70;54.50;;;;;;5102068;27;34106;-76
2022/01/14 07:20:43;;;;;;;2.78;2.35;;;-0.70;54.40;;;;;;5084391;28;34110;-76
2022/01/14 07:23:09;;;;;;;2.65;2.45;;;-0.70;54.60;;;;;;5084324;28;35662;-76
2022/01/14 07:25:38;;;;;;;2.45;2.25;;;-0.70;54.60;;;;;;5102562;27;34241;-76
2022/01/14 07:28:04;;;;;;;3.35;2.65;;;-0.70;54.80;;;;;;5102618;27;34179;-76
2022/01/14 07:30:30;;;;;;;2.88;2.50;;;-0.70;54.70;;;;;;5103108;27;34396;-76
2022/01/14 07:32:56;;;;;;;3.58;2.80;;;-0.70;54.50;;;;;;5087569;28;36028;-76
2022/01/14 07:35:22;;;;;;;4.50;2.85;;;-0.70;54.50;;;;;;5088221;28;34364;-76
2022/01/14 07:37:48;;;;;;;4.18;2.90;;;-0.70;54.40;;;;;;5104337;27;34431;-76
2022/01/14 07:40:14;;;;;;;5.28;3.42;;;-0.70;54.40;;;;;;5104896;28;34179;-76
2022/01/14 07:42:41;;;;;;;5.97;3.38;;;-0.70;54.50;;;;;;5087434;28;35587;-76
2022/01/14 07:45:07;;;;;;;5.80;3.45;;;-0.70;54.40;;;;;;5087696;28;34291;-76
2022/01/14 07:47:33;;;;;;;7.28;3.15;;;-0.70;54.70;;;;;;5106142;27;34115;-76
2022/01/14 07:49:59;;;;;;;8.43;3.20;;;-0.70;54.90;;;;;;5105789;27;34419;-77
2022/01/14 07:52:25;;;;;;;4.78;3.00;;;-0.70;54.80;;;;;;5104507;28;35581;-76
2022/01/14 07:54:51;;;;;;;4.82;3.30;;;-0.70;54.90;;;;;;5105597;28;34921;-76
2022/01/14 07:57:19;;;;;;;4.60;3.13;;;-0.70;54.90;;;;;;5104538;27;34069;-76
2022/01/14 07:59:45;;;;;;;5.03;3.42;;;-0.70;54.90;;;;;;5105091;27;34300;-76
2022/01/14 08:02:12;;;;;;;3.05;2.55;;;-0.70;54.90;;;;;;5104664;28;36678;-77
2022/01/14 08:04:40;;;;;;;5.70;3.28;;;-0.70;54.80;;;;;;5104011;27;34130;-77
2022/01/14 08:07:09;;;;;;;3.67;2.85;;;-0.70;54.70;;;;;;5104625;28;34426;-76
2022/01/14 08:09:37;;;;;;;3.67;2.58;;;-0.70;54.40;;;;;;5088099;28;34179;-77
2022/01/14 08:12:05;;;;;;;3.25;2.70;;;-0.70;54.20;;;;;;5103970;28;35640;-77
2022/01/14 08:14:32;;;;;;;3.75;3.08;;;-0.70;54.20;;;;;;5105126;28;34068;-77
2022/01/14 08:16:58;;;;;;;3.13;2.58;;;-0.70;54.40;;;;;;5105550;27;34044;-76
2022/01/14 08:19:24;;;;;;;3.85;2.78;;;-0.70;54.70;;;;;;5105609;28;34239;-77
2022/01/14 08:21:51;;;;;;;4.13;2.92;;;-0.70;54.50;;;;;;5106556;27;34413;-77
2022/01/14 08:24:17;;;;;;;3.92;2.80;;;-0.60;54.30;;;;;;5105464;28;34263;-76
2022/01/14 08:26:43;;;;;;;4.53;3.00;;;-0.60;54.30;;;;;;5103717;28;34378;-76
2022/01/14 08:29:09;;;;;;;4.00;2.95;;;-0.60;54.40;;;;;;5086935;28;34355;-77
2022/01/14 08:31:35;;;;;;;4.28;3.00;;;-0.60;54.80;;;;;;5104148;27;35985;-77
2022/01/14 08:34:01;;;;;;;4.10;2.70;;;-0.50;55.00;;;;;;5104285;28;34134;-76
2022/01/14 08:36:29;;;;;;;5.72;2.70;;;-0.50;55.20;;;;;;5105387;27;34156;-76
2022/01/14 08:38:55;;;;;;;2.80;2.45;;;-0.50;56.00;;;;;;5104944;28;34296;-76
2022/01/14 08:41:23;;;;;;;3.42;3.10;;;-0.40;55.10;;;;;;5104636;27;35788;-76
2022/01/14 08:43:49;;;;;;;6.35;4.28;;;-0.30;55.20;;;;;;5104582;28;34154;-77
2022/01/14 08:46:16;;;;;;;3.95;3.22;;;-0.30;55.20;;;;;;5105162;28;34118;-76
2022/01/14 08:48:42;;;;;;;10.02;3.45;;;-0.20;55.20;;;;;;5105030;28;34324;-77
2022/01/14 08:51:08;;;;;;;4.63;3.38;;;-0.10;55.10;;;;;;5104100;28;35698;-77
2022/01/14 08:53:35;;;;;;;5.60;3.28;;;-0.10;55.00;;;;;;5104294;28;34105;-77
2022/01/14 08:56:06;;;;;;;4.95;3.42;;;0.00;55.00;;;;;;5105595;28;34366;-76
2022/01/14 08:58:32;;;;;;;9.25;3.30;;;0.10;55.10;;;;;;5104973;28;34052;-76
2022/01/14 09:00:58;;;;;;;4.18;3.42;;;0.20;55.10;;;;;;5085916;28;35986;-77
2022/01/14 09:03:24;;;;;;;5.25;3.70;;;0.30;55.20;;;;;;5104692;27;34263;-77
2022/01/14 09:05:51;;;;;;;7.82;3.75;;;0.40;55.10;;;;;;5086607;28;34235;-77
2022/01/14 09:08:17;;;;;;;3.83;3.33;;;0.60;54.80;;;;;;5086416;28;34332;-77
2022/01/14 09:10:43;;;;;;;4.28;3.63;;;0.70;54.90;;;;;;5102749;28;35793;-76
2022/01/14 09:13:09;;;;;;;4.90;3.33;;;0.80;54.60;;;;;;5103640;28;34151;-77
2022/01/14 09:15:36;;;;;;;3.83;3.45;;;0.90;54.70;;;;;;5103334;28;34122;-77
2022/01/14 09:18:04;;;;;;;5.05;3.60;;;1.00;54.40;;;;;;5103248;28;34148;-77
2022/01/14 09:20:30;;;;;;;3.83;3.47;;;1.10;54.40;;;;;;5102674;28;35832;-77
2022/01/14 09:22:58;;;;;;;3.50;3.08;;;1.20;54.50;;;;;;5086386;28;34375;-77
2022/01/14 09:25:25;;;;;;;5.15;3.33;;;1.20;54.60;;;;;;5103537;27;34372;-77
2022/01/14 09:27:52;;;;;;;4.60;3.22;;;1.20;54.40;;;;;;5103213;27;34293;-77
2022/01/14 09:30:21;;;;;;;4.43;3.15;;;1.30;54.40;;;;;;5102573;28;35812;-76
2022/01/14 09:32:47;;;;;;;4.95;3.58;;;1.30;54.60;;;;;;5102831;28;34249;-77
2022/01/14 09:35:13;;;;;;;5.72;4.28;;;1.50;55.00;;;;;;5104151;27;34292;-77
2022/01/14 09:37:41;;;;;;;4.47;3.83;;;1.50;54.70;;;;;;5103424;28;34126;-77
2022/01/14 09:40:08;;;;;;;5.13;3.30;;;1.70;54.80;;;;;;5102908;28;35963;-77
2022/01/14 09:42:34;;;;;;;4.25;3.50;;;1.80;54.90;;;;;;5103793;28;34125;-77
2022/01/14 09:45:01;;;;;;;4.13;3.25;;;2.00;54.80;;;;;;5102984;28;34152;-77
2022/01/14 09:47:27;;;;;;;6.10;3.35;;;2.20;54.60;;;;;;5085617;28;34153;-76
2022/01/14 09:49:53;;;;;;;4.78;3.30;;;2.40;54.30;;;;;;5103375;28;35783;-77
2022/01/14 09:52:19;;;;;;;4.78;3.72;;;2.50;54.30;;;;;;5086416;28;34300;-76
2022/01/14 09:54:47;;;;;;;5.15;3.67;;;2.70;54.30;;;;;;5101749;28;35229;-77
2022/01/14 09:57:16;;;;;;;4.20;3.08;;;2.90;54.20;;;;;;5104719;27;34357;-77
2022/01/14 10:00:02;;;;;;;4.15;3.70;;;3.10;54.50;;;;;;5103069;28;34256;-77
2022/01/14 10:02:38;;;;;;;4.38;3.22;;;3.20;53.50;;;;;;5085968;28;34257;-76
2022/01/14 10:05:06;;;;;;;3.67;3.38;;;3.40;53.70;;;;;;5102482;27;34227;-76
2022/01/14 10:07:33;;;;;;;5.47;3.45;;;3.60;53.70;;;;;;5103300;28;34241;-77
2022/01/14 10:10:02;;;;;;;5.50;3.65;;;3.80;53.60;;;;;;5085484;28;35590;-76
2022/01/14 10:12:33;;;;;;;5.45;4.05;;;3.90;53.80;;;;;;5086106;28;34369;-76
2022/01/14 10:15:08;;;;;;;8.38;3.75;;;4.10;53.50;;;;;;5085439;28;34295;-76
2022/01/14 10:17:40;;;;;;;7.72;3.65;;;4.30;53.40;;;;;;5101799;27;34383;-76
2022/01/14 10:20:12;;;;;;;6.22;3.67;;;4.50;53.00;;;;;;5085935;28;35820;-76
2022/01/14 10:22:42;;;;;;;5.47;3.72;;;4.60;53.00;;;;;;5104548;27;34137;-76
2022/01/14 10:25:12;;;;;;;4.43;3.78;;;4.80;53.10;;;;;;5070196;28;34329;-76
2022/01/14 10:27:43;;;;;;;4.70;3.95;;;4.90;53.20;;;;;;5105001;27;34198;-75
2022/01/14 10:30:14;;;;;;;5.35;3.80;;;5.00;52.70;;;;;;5087015;28;35814;-76
2022/01/14 10:32:42;;;;;;;4.30;3.35;;;5.10;53.00;;;;;;5086885;28;34092;-75
2022/01/14 10:35:12;;;;;;;6.07;3.70;;;5.20;52.80;;;;;;5102936;28;34189;-76
2022/01/14 10:37:38;;;;;;;5.07;3.58;;;5.30;53.00;;;;;;5069551;28;34216;-76
2022/01/14 10:40:13;;;;;;;5.65;3.83;;;5.50;53.00;;;;;;5101436;27;36633;-75
2022/01/14 10:42:40;;;;;;;4.78;3.60;;;5.60;52.80;;;;;;5069284;28;34179;-75
2022/01/14 10:45:17;;;;;;;7.53;4.25;;;5.70;52.90;;;;;;5084352;28;34309;-75
2022/01/14 10:47:53;;;;;;;4.72;3.72;;;5.90;52.70;;;;;;5084953;28;34265;-76
2022/01/14 10:50:26;;;;;;;4.95;3.60;;;6.10;52.80;;;;;;5084477;28;35738;-75
2022/01/14 10:52:52;;;;;;;5.43;4.10;;;6.20;52.60;;;;;;5101594;28;34208;-76
2022/01/14 10:55:37;;;;;;;6.07;4.28;;;6.40;52.30;;;;;;5102201;27;34146;-75
2022/01/14 10:58:09;;;;;;;4.95;3.90;;;6.40;50.60;;;;;;5101751;28;34250;-75
2022/01/14 11:00:47;;;;;;;6.80;4.25;;;6.40;52.30;;;;;;5067457;28;35446;-76
2022/01/14 11:03:14;;;;;;;4.45;3.63;;;6.50;52.00;;;;;;5068142;28;34167;-76
2022/01/14 11:05:41;;;;;;;5.95;4.25;;;6.60;52.50;;;;;;5103963;27;34158;-75
2022/01/14 11:08:08;;;;;;;5.82;4.15;;;6.80;52.60;;;;;;5105249;28;34322;-75
2022/01/14 11:10:36;;;;;;;5.72;4.47;;;6.90;52.60;;;;;;5105834;27;34210;-75
2022/01/14 11:13:06;;;;;;;5.78;4.10;;;6.90;52.20;;;;;;5104526;28;34337;-76
2022/01/14 11:15:33;;;;;;;7.30;4.13;;;7.00;52.00;;;;;;5088002;28;34186;-75
2022/01/14 11:18:02;;;;;;;5.25;3.95;;;7.00;51.70;;;;;;5104999;27;34060;-75
2022/01/14 11:20:34;;;;;;;7.07;4.07;;;7.00;51.80;;;;;;5105690;27;34976;-75
2022/01/14 11:25:57;;;;;;;7.95;4.38;;;7.10;52.00;;;;;;5104882;28;34213;-75
2022/01/14 11:28:29;;;;;;;7.53;4.00;;;7.20;50.40;;;;;;5088790;28;34506;-75
2022/01/14 11:30:56;;;;;;;6.00;4.20;;;7.30;51.50;;;;;;5103891;28;35888;-75
2022/01/14 11:33:38;;;;;;;5.88;4.20;;;7.40;51.80;;;;;;5105150;28;34349;-75
2022/01/14 11:36:07;;;;;;;7.28;4.50;;;7.50;50.30;;;;;;5071200;28;34230;-75
2022/01/14 11:38:36;;;;;;;6.93;4.38;;;7.50;51.80;;;;;;5104956;28;34624;-75
2022/01/14 11:41:03;;;;;;;8.07;4.60;;;7.60;52.00;;;;;;5087938;28;35917;-76
2022/01/14 11:43:54;;;;;;;5.45;4.15;;;7.70;52.00;;;;;;5104562;28;34179;-76
2022/01/14 11:46:43;;;;;;;5.57;4.00;;;7.90;50.80;;;;;;5104104;27;34520;-76
2022/01/14 11:49:34;;;;;;;5.15;4.25;;;8.00;49.70;;;;;;5104680;28;34245;-76
2022/01/14 11:52:03;;;;;;;6.78;4.57;;;8.00;50.20;;;;;;5105515;27;34306;-76
2022/01/14 11:54:40;;;;;;;7.38;4.38;;;8.00;51.40;;;;;;5070517;28;34241;-76
2022/01/14 11:57:07;;;;;;;5.60;4.10;;;8.00;50.40;;;;;;5087571;28;34216;-76
2022/01/14 11:59:39;;;;;;;5.47;4.18;;;8.00;51.10;;;;;;5087065;28;34321;-75
2022/01/14 12:02:28;;;;;;;4.55;3.97;;;8.00;51.10;;;;;;5104802;28;36850;-76
2022/01/14 12:05:05;;;;;;;6.45;4.32;;;8.00;49.50;;;;;;5088248;28;34193;-76
2022/01/14 12:07:32;;;;;;;6.07;4.47;;;8.00;50.00;;;;;;5105362;28;34111;-75
2022/01/14 12:10:03;;;;;;;6.88;4.20;;;8.00;51.30;;;;;;5105633;27;34269;-76
2022/01/14 12:12:31;;;;;;;5.63;4.43;;;8.00;51.50;;;;;;5087673;28;35287;-75
2022/01/14 12:15:01;;;;;;;7.47;4.78;;;8.10;51.60;;;;;;5105023;28;34139;-76
2022/01/14 12:17:42;;;;;;;8.15;4.82;;;8.10;51.40;;;;;;5103892;27;34680;-76
2022/01/14 12:20:18;;;;;;;7.15;4.85;;;8.20;50.10;;;;;;5105232;28;34138;-76
2022/01/14 12:23:05;;;;;;;8.38;5.03;;;8.20;50.90;;;;;;5087690;27;35903;-76
2022/01/14 12:25:40;;;;;;;7.55;4.45;;;8.20;49.40;;;;;;5074531;28;34101;-76
2022/01/14 12:28:23;;;;;;;6.88;4.30;;;8.20;50.40;;;;;;5105628;28;34080;-75
2022/01/14 12:31:04;;;;;;;5.43;3.83;;;8.30;50.60;;;;;;5105009;28;34190;-76
2022/01/14 12:33:48;;;;;;;7.43;4.45;;;8.30;50.80;;;;;;5104967;27;35463;-76
2022/01/14 12:36:18;;;;;;;5.50;4.32;;;8.40;50.50;;;;;;5103597;28;34268;-77
2022/01/14 12:38:45;;;;;;;6.18;4.43;;;8.40;51.60;;;;;;5069688;28;34227;-76
2022/01/14 12:41:16;;;;;;;6.20;4.57;;;8.50;51.70;;;;;;5103616;28;34118;-76
2022/01/14 12:43:58;;;;;;;5.45;4.13;;;8.60;51.50;;;;;;5103008;27;35846;-76
2022/01/14 12:46:45;;;;;;;6.35;4.70;;;8.70;50.50;;;;;;5103473;27;34392;-76
2022/01/14 12:49:29;;;;;;;6.55;4.75;;;8.70;51.10;;;;;;5074288;28;34410;-76
2022/01/14 12:52:14;;;;;;;5.20;4.18;;;8.70;49.80;;;;;;5103442;27;34718;-76
2022/01/14 12:54:43;;;;;;;7.20;4.53;;;8.80;50.10;;;;;;5102577;28;35974;-76
2022/01/14 12:57:14;;;;;;;6.95;4.40;;;8.90;51.30;;;;;;5103776;28;34194;-76
2022/01/14 12:59:50;;;;;;;5.80;3.97;;;8.90;51.20;;;;;;5102983;27;34472;-76
2022/01/14 13:02:22;;;;;;;7.72;4.10;;;9.00;50.70;;;;;;5079431;28;34357;-76
2022/01/14 13:05:08;;;;;;;6.43;4.35;;;9.00;51.10;;;;;;5083904;28;35316;-76
2022/01/14 13:07:36;;;;;;;6.15;4.18;;;9.10;50.00;;;;;;5105203;27;34122;-76
2022/01/14 13:10:05;;;;;;;9.55;4.28;;;9.10;51.30;;;;;;5104513;28;34237;-76
2022/01/14 13:12:36;;;;;;;6.60;4.43;;;9.20;51.20;;;;;;5103995;28;35046;-76
2022/01/14 13:15:04;;;;;;;7.07;4.15;;;9.20;51.10;;;;;;5086343;28;35966;-76
2022/01/14 13:17:35;;;;;;;6.70;4.28;;;9.20;51.00;;;;;;5086033;28;34200;-76
2022/01/14 13:20:12;;;;;;;9.95;4.40;;;9.20;50.90;;;;;;5104466;27;34170;-76
2022/01/14 13:22:40;;;;;;;4.85;3.83;;;9.20;50.50;;;;;;5069212;28;34192;-76